createdAt,value
2014-08-23T05:58:57.320Z,99300
2014-08-23T05:59:15.538Z,99298
2014-08-23T05:59:33.788Z,99300
2014-08-23T05:59:52.007Z,99300
2014-08-23T06:00:10.306Z,99298
2014-08-23T06:00:28.509Z,99300
2014-08-23T06:00:46.728Z,99309
2014-08-23T06:01:04.980Z,99300
2014-08-23T06:01:23.183Z,99309
2014-08-23T06:01:41.417Z,99306
2014-08-23T06:01:59.667Z,99295
2014-08-23T06:02:19.186Z,99300
2014-08-23T06:02:38.842Z,99309
2014-08-23T06:02:58.514Z,99306
2014-08-23T06:03:51.907Z,99306
2014-08-23T06:04:10.142Z,99318
2014-08-23T06:04:28.377Z,99298
2014-08-23T06:04:48.923Z,99309
2014-08-23T06:05:08.629Z,99309
2014-08-23T06:05:31.394Z,99312
2014-08-23T06:05:52.144Z,99315
2014-08-23T06:06:10.350Z,99298
2014-08-23T06:06:28.569Z,99306
2014-08-23T06:06:46.788Z,99312
2014-08-23T06:07:05.069Z,99300
2014-08-23T06:07:23.398Z,99298
2014-08-23T06:07:44.195Z,99298
2014-08-23T06:08:03.320Z,99306
2014-08-23T06:08:21.511Z,99309
2014-08-23T06:08:39.901Z,99300
2014-08-23T06:08:58.120Z,99309
2014-08-23T06:09:18.026Z,99306
2014-08-23T06:09:36.246Z,99318
2014-08-23T06:09:54.730Z,99298
2014-08-23T06:10:12.949Z,99321
2014-08-23T06:10:31.249Z,99309
2014-08-23T06:10:49.436Z,99318
2014-08-23T06:11:07.655Z,99318
2014-08-23T06:11:25.858Z,99315
2014-08-23T06:11:44.204Z,99309
2014-08-23T06:12:02.532Z,99295
2014-08-23T06:12:20.970Z,99300
2014-08-23T06:12:39.471Z,99312
2014-08-23T06:12:57.846Z,99297
2014-08-23T06:13:48.521Z,99309
2014-08-23T06:14:07.067Z,99306
2014-08-23T06:14:25.380Z,99309
2014-08-23T06:14:43.583Z,99300
2014-08-23T06:15:01.835Z,99309
2014-08-23T06:15:20.788Z,99312
2014-08-23T06:15:39.788Z,99300
2014-08-23T06:15:58.228Z,99306
2014-08-23T06:16:16.509Z,99306
2014-08-23T06:16:34.868Z,99309
2014-08-23T06:16:53.087Z,99309
2014-08-23T06:17:25.495Z,99306
2014-08-23T06:17:44.183Z,99306
2014-08-23T06:18:36.060Z,99306
2014-08-23T06:18:54.310Z,99309
2014-08-23T06:19:12.531Z,99306
2014-08-23T06:19:31.812Z,99306
2014-08-23T06:19:50.109Z,99306
2014-08-23T06:20:08.499Z,99312
2014-08-23T06:20:26.736Z,99306
2014-08-23T06:20:44.954Z,99306
2014-08-23T06:21:03.486Z,99306
2014-08-23T06:21:22.456Z,99312
2014-08-23T06:21:40.878Z,99306
2014-08-23T06:21:59.128Z,99312
2014-08-23T06:22:17.347Z,99315
2014-08-23T06:22:50.521Z,99306
2014-08-23T06:23:08.943Z,99315
2014-08-23T06:23:27.211Z,99312
2014-08-23T06:23:45.836Z,99300
2014-08-23T06:24:04.165Z,99306
2014-08-23T06:24:23.415Z,99312
2014-08-23T06:24:41.651Z,99312
2014-08-23T06:25:00.745Z,99315
2014-08-23T06:25:18.901Z,99309
2014-08-23T06:25:37.247Z,99315
2014-08-23T06:25:55.465Z,99315
2014-08-23T06:26:28.309Z,99315
2014-08-23T06:26:46.514Z,99309
2014-08-23T06:27:04.749Z,99306
2014-08-23T06:27:39.014Z,99306
2014-08-23T06:27:58.282Z,99312
2014-08-23T06:28:17.079Z,99306
2014-08-23T06:28:35.235Z,99315
2014-08-23T06:28:53.471Z,99306
2014-08-23T06:29:11.721Z,99312
2014-08-23T06:29:31.831Z,99300
2014-08-23T06:29:53.145Z,99312
2014-08-23T06:30:14.302Z,99312
2014-08-23T06:30:32.536Z,99312
2014-08-23T06:30:50.770Z,99317
2014-08-23T06:31:11.147Z,99312
2014-08-23T06:31:31.210Z,99312
2014-08-23T06:31:50.350Z,99312
2014-08-23T06:32:09.759Z,99309
2014-08-23T06:32:28.977Z,99315
2014-08-23T06:32:49.384Z,99315
2014-08-23T06:33:08.135Z,99309
2014-08-23T06:33:26.322Z,99315
2014-08-23T06:33:44.541Z,99326
2014-08-23T06:34:02.763Z,99326
2014-08-23T06:34:21.013Z,99317
2014-08-23T06:34:39.231Z,99323
2014-08-23T06:34:57.825Z,99314
2014-08-23T06:35:18.592Z,99320
2014-08-23T06:35:37.217Z,99320
2014-08-23T06:35:55.732Z,99323
2014-08-23T06:36:15.814Z,99328
2014-08-23T06:36:34.032Z,99320
2014-08-23T06:36:53.814Z,99320
2014-08-23T06:37:12.316Z,99328
2014-08-23T06:37:45.659Z,99317
2014-08-23T06:38:04.050Z,99320
2014-08-23T06:38:22.693Z,99326
2014-08-23T06:38:41.239Z,99328
2014-08-23T06:38:59.677Z,99326
2014-08-23T06:39:17.882Z,99323
2014-08-23T06:39:36.101Z,99326
2014-08-23T06:39:54.460Z,99323
2014-08-23T06:40:12.648Z,99309
2014-08-23T06:40:30.915Z,99317
2014-08-23T06:40:49.228Z,99323
2014-08-23T06:41:07.431Z,99323
2014-08-23T06:41:25.667Z,99323
2014-08-23T06:41:43.870Z,99320
2014-08-23T06:42:02.105Z,99323
2014-08-23T06:42:20.324Z,99323
2014-08-23T06:42:38.607Z,99328
2014-08-23T06:42:56.826Z,99323
2014-08-23T06:43:15.060Z,99317
2014-08-23T06:43:33.421Z,99320
2014-08-23T06:43:52.640Z,99320
2014-08-23T06:44:10.874Z,99328
2014-08-23T06:44:29.124Z,99328
2014-08-23T06:44:47.361Z,99331
2014-08-23T06:45:05.626Z,99323
2014-08-23T06:45:23.923Z,99328
2014-08-23T06:45:42.160Z,99328
2014-08-23T06:46:00.394Z,99328
2014-08-23T06:46:18.597Z,99320
2014-08-23T06:46:36.847Z,99314
2014-08-23T06:46:55.037Z,99326
2014-08-23T06:47:13.287Z,99323
2014-08-23T06:47:31.505Z,99331
2014-08-23T06:47:49.820Z,99323
2014-08-23T06:48:08.039Z,99320
2014-08-23T06:48:26.257Z,99320
2014-08-23T06:48:44.492Z,99323
2014-08-23T06:49:02.745Z,99320
2014-08-23T06:49:20.964Z,99317
2014-08-23T06:49:39.167Z,99323
2014-08-23T06:49:58.044Z,99320
2014-08-23T06:50:16.512Z,99320
2014-08-23T06:50:34.762Z,99314
2014-08-23T06:50:52.950Z,99320
2014-08-23T06:51:11.217Z,99314
2014-08-23T06:51:29.420Z,99317
2014-08-23T06:51:47.638Z,99326
2014-08-23T06:52:05.859Z,99314
2014-08-23T06:52:24.094Z,99314
2014-08-23T06:52:42.344Z,99323
2014-08-23T06:53:00.549Z,99320
2014-08-23T06:53:18.767Z,99326
2014-08-23T06:53:36.986Z,99328
2014-08-23T06:53:55.221Z,99336
2014-08-23T06:54:13.441Z,99328
2014-08-23T06:54:31.676Z,99328
2014-08-23T06:54:49.879Z,99323
2014-08-23T06:55:08.115Z,99333
2014-08-23T06:55:26.318Z,99328
2014-08-23T06:55:44.537Z,99328
2014-08-23T06:56:02.758Z,99326
2014-08-23T06:56:20.992Z,99336
2014-08-23T06:56:39.227Z,99320
2014-08-23T06:56:57.445Z,99317
2014-08-23T06:57:15.682Z,99323
2014-08-23T06:57:33.900Z,99328
2014-08-23T06:57:52.119Z,99328
2014-08-23T06:58:24.512Z,99326
2014-08-23T06:58:42.715Z,99330
2014-08-23T06:59:00.934Z,99317
2014-08-23T06:59:19.186Z,99320
2014-08-23T06:59:37.404Z,99323
2014-08-23T06:59:55.639Z,99320
2014-08-23T07:00:13.983Z,99326
2014-08-23T07:00:32.266Z,99328
2014-08-23T07:00:50.547Z,99326
2014-08-23T07:01:08.766Z,99326
2014-08-23T07:01:26.988Z,99330
2014-08-23T07:01:45.269Z,99330
2014-08-23T07:02:03.488Z,99323
2014-08-23T07:02:21.722Z,99320
2014-08-23T07:02:39.927Z,99323
2014-08-23T07:03:12.333Z,99323
2014-08-23T07:03:30.617Z,99328
2014-08-23T07:03:48.835Z,99323
2014-08-23T07:04:07.085Z,99326
2014-08-23T07:04:25.335Z,99330
2014-08-23T07:04:43.555Z,99317
2014-08-23T07:05:01.758Z,99327
2014-08-23T07:05:20.024Z,99326
2014-08-23T07:05:38.229Z,99320
2014-08-23T07:05:56.463Z,99320
2014-08-23T07:06:14.682Z,99323
2014-08-23T07:06:32.916Z,99323
2014-08-23T07:06:51.153Z,99330
2014-08-23T07:07:09.372Z,99326
2014-08-23T07:07:27.606Z,99333
2014-08-23T07:07:45.859Z,99339
2014-08-23T07:08:04.093Z,99320
2014-08-23T07:08:22.312Z,99320
2014-08-23T07:08:40.546Z,99327
2014-08-23T07:08:58.752Z,99327
2014-08-23T07:09:16.955Z,99330
2014-08-23T07:09:35.173Z,99333
2014-08-23T07:09:53.410Z,99333
2014-08-23T07:10:11.644Z,99333
2014-08-23T07:10:29.863Z,99330
2014-08-23T07:10:48.097Z,99327
2014-08-23T07:11:06.302Z,99327
2014-08-23T07:11:24.521Z,99330
2014-08-23T07:11:42.756Z,99345
2014-08-23T07:12:00.992Z,99330
2014-08-23T07:12:19.226Z,99330
2014-08-23T07:12:37.429Z,99339
2014-08-23T07:12:55.679Z,99336
2014-08-23T07:13:13.900Z,99342
2014-08-23T07:13:32.103Z,99336
2014-08-23T07:13:50.353Z,99333
2014-08-23T07:14:08.557Z,99330
2014-08-23T07:14:26.776Z,99330
2014-08-23T07:14:45.011Z,99330
2014-08-23T07:15:03.216Z,99339
2014-08-23T07:15:21.450Z,99333
2014-08-23T07:15:39.669Z,99327
2014-08-23T07:15:57.888Z,99330
2014-08-23T07:16:16.109Z,99333
2014-08-23T07:16:34.328Z,99330
2014-08-23T07:16:52.547Z,99336
2014-08-23T07:17:10.782Z,99333
2014-08-23T07:17:29.017Z,99333
2014-08-23T07:17:47.251Z,99330
2014-08-23T07:18:05.470Z,99330
2014-08-23T07:18:23.691Z,99333
2014-08-23T07:18:56.066Z,99336
2014-08-23T07:19:14.318Z,99330
2014-08-23T07:19:32.553Z,99325
2014-08-23T07:19:50.740Z,99330
2014-08-23T07:20:08.975Z,99327
2014-08-23T07:20:27.194Z,99339
2014-08-23T07:20:45.413Z,99333
2014-08-23T07:21:03.648Z,99339
2014-08-23T07:21:21.868Z,99336
2014-08-23T07:21:40.071Z,99339
2014-08-23T07:21:58.290Z,99326
2014-08-23T07:22:16.509Z,99345
2014-08-23T07:22:34.746Z,99333
2014-08-23T07:22:52.949Z,99342
2014-08-23T07:23:11.199Z,99336
2014-08-23T07:23:29.419Z,99336
2014-08-23T07:23:48.997Z,99342
2014-08-23T07:24:08.888Z,99345
2014-08-23T07:24:28.187Z,99339
2014-08-23T07:24:47.734Z,99342
2014-08-23T07:25:06.187Z,99342
2014-08-23T07:25:24.406Z,99339
2014-08-23T07:25:42.611Z,99339
2014-08-23T07:26:00.861Z,99342
2014-08-23T07:26:19.095Z,99333
2014-08-23T07:26:37.332Z,99339
2014-08-23T07:26:55.551Z,99333
2014-08-23T07:27:13.786Z,99348
2014-08-23T07:27:31.989Z,99336
2014-08-23T07:27:50.208Z,99336
2014-08-23T07:28:08.427Z,99342
2014-08-23T07:28:26.662Z,99336
2014-08-23T07:28:44.899Z,99330
2014-08-23T07:29:03.102Z,99336
2014-08-23T07:29:35.540Z,99336
2014-08-23T07:29:53.760Z,99333
2014-08-23T07:30:11.995Z,99336
2014-08-23T07:30:30.213Z,99333
2014-08-23T07:30:48.448Z,99336
2014-08-23T07:31:06.669Z,99330
2014-08-23T07:31:24.903Z,99333
2014-08-23T07:31:43.122Z,99336
2014-08-23T07:32:01.359Z,99339
2014-08-23T07:32:19.562Z,99336
2014-08-23T07:32:37.797Z,99339
2014-08-23T07:32:56.015Z,99336
2014-08-23T07:33:14.235Z,99333
2014-08-23T07:33:32.454Z,99325
2014-08-23T07:33:50.673Z,99330
2014-08-23T07:34:08.909Z,99330
2014-08-23T07:34:27.128Z,99336
2014-08-23T07:34:45.346Z,99327
2014-08-23T07:35:03.596Z,99342
2014-08-23T07:35:21.817Z,99327
2014-08-23T07:35:40.020Z,99330
2014-08-23T07:35:58.239Z,99330
2014-08-23T07:36:16.492Z,99333
2014-08-23T07:36:34.711Z,99333
2014-08-23T07:36:52.930Z,99333
2014-08-23T07:37:11.148Z,99330
2014-08-23T07:37:29.399Z,99336
2014-08-23T07:37:47.602Z,99339
2014-08-23T07:38:05.852Z,99322
2014-08-23T07:38:24.059Z,99336
2014-08-23T07:38:42.309Z,99336
2014-08-23T07:39:00.527Z,99330
2014-08-23T07:39:18.732Z,99339
2014-08-23T07:39:36.951Z,99339
2014-08-23T07:39:55.186Z,99336
2014-08-23T07:40:13.420Z,99345
2014-08-23T07:40:31.624Z,99330
2014-08-23T07:40:49.843Z,99330
2014-08-23T07:41:08.108Z,99327
2014-08-23T07:41:26.314Z,99342
2014-08-23T07:41:44.532Z,99342
2014-08-23T07:42:02.751Z,99339
2014-08-23T07:42:20.954Z,99344
2014-08-23T07:42:39.206Z,99339
2014-08-23T07:42:57.425Z,99327
2014-08-23T07:43:15.644Z,99336
2014-08-23T07:43:33.896Z,99333
2014-08-23T07:43:52.114Z,99336
2014-08-23T07:44:10.318Z,99333
2014-08-23T07:44:28.536Z,99330
2014-08-23T07:44:46.789Z,99327
2014-08-23T07:45:04.992Z,99339
2014-08-23T07:45:23.227Z,99339
2014-08-23T07:45:41.447Z,99330
2014-08-23T07:45:59.650Z,99339
2014-08-23T07:46:17.915Z,99333
2014-08-23T07:46:36.118Z,99336
2014-08-23T07:46:54.325Z,99339
2014-08-23T07:47:12.559Z,99330
2014-08-23T07:47:30.793Z,99330
2014-08-23T07:47:49.013Z,99339
2014-08-23T07:48:07.232Z,99333
2014-08-23T07:48:25.466Z,99344
2014-08-23T07:48:43.701Z,99339
2014-08-23T07:49:01.906Z,99342
2014-08-23T07:49:20.124Z,99333
2014-08-23T07:49:38.359Z,99339
2014-08-23T07:49:56.595Z,99333
2014-08-23T07:50:14.783Z,99342
2014-08-23T07:50:33.017Z,99336
2014-08-23T07:50:51.251Z,99336
2014-08-23T07:51:09.473Z,99330
2014-08-23T07:51:27.692Z,99330
2014-08-23T07:51:45.926Z,99336
2014-08-23T07:52:04.162Z,99341
2014-08-23T07:52:22.380Z,99336
2014-08-23T07:52:40.615Z,99347
2014-08-23T07:52:58.818Z,99341
2014-08-23T07:53:17.055Z,99341
2014-08-23T07:53:35.274Z,99339
2014-08-23T07:54:07.651Z,99336
2014-08-23T07:54:25.885Z,99336
2014-08-23T07:54:44.120Z,99333
2014-08-23T07:55:02.323Z,99333
2014-08-23T07:55:20.543Z,99336
2014-08-23T07:55:38.777Z,99344
2014-08-23T07:55:57.011Z,99341
2014-08-23T07:56:15.217Z,99336
2014-08-23T07:56:33.467Z,99336
2014-08-23T07:56:51.685Z,99341
2014-08-23T07:57:09.920Z,99339
2014-08-23T07:57:28.141Z,99336
2014-08-23T07:57:46.345Z,99339
2014-08-23T07:58:04.579Z,99336
2014-08-23T07:58:22.814Z,99333
2014-08-23T07:58:41.017Z,99336
2014-08-23T07:58:59.267Z,99339
2014-08-23T07:59:17.502Z,99336
2014-08-23T07:59:35.739Z,99336
2014-08-23T07:59:53.958Z,99333
2014-08-23T08:00:12.192Z,99339
2014-08-23T08:00:30.491Z,99330
2014-08-23T08:00:48.710Z,99336
2014-08-23T08:01:06.913Z,99347
2014-08-23T08:01:25.147Z,99327
2014-08-23T08:01:43.368Z,99339
2014-08-23T08:02:01.603Z,99347
2014-08-23T08:02:19.806Z,99347
2014-08-23T08:02:38.058Z,99339
2014-08-23T08:02:56.276Z,99344
2014-08-23T08:03:14.495Z,99341
2014-08-23T08:03:32.730Z,99339
2014-08-23T08:03:50.966Z,99341
2014-08-23T08:04:09.185Z,99341
2014-08-23T08:04:27.419Z,99347
2014-08-23T08:04:45.624Z,99333
2014-08-23T08:05:03.859Z,99336
2014-08-23T08:05:22.093Z,99341
2014-08-23T08:05:40.296Z,99336
2014-08-23T08:05:58.548Z,99341
2014-08-23T08:06:16.767Z,99341
2014-08-23T08:06:34.986Z,99341
2014-08-23T08:06:53.222Z,99336
2014-08-23T08:07:11.425Z,99338
2014-08-23T08:07:29.659Z,99341
2014-08-23T08:07:47.878Z,99333
2014-08-23T08:08:06.099Z,99333
2014-08-23T08:08:24.349Z,99333
2014-08-23T08:08:42.583Z,99341
2014-08-23T08:09:00.805Z,99336
2014-08-23T08:09:19.024Z,99333
2014-08-23T08:09:37.258Z,99338
2014-08-23T08:09:55.477Z,99327
2014-08-23T08:10:13.697Z,99338
2014-08-23T08:10:31.900Z,99336
2014-08-23T08:10:50.150Z,99338
2014-08-23T08:11:08.355Z,99336
2014-08-23T08:11:26.589Z,99344
2014-08-23T08:11:44.808Z,99341
2014-08-23T08:12:03.058Z,99338
2014-08-23T08:12:21.279Z,99341
2014-08-23T08:12:39.529Z,99341
2014-08-23T08:12:57.748Z,99344
2014-08-23T08:13:15.953Z,99347
2014-08-23T08:13:34.203Z,99341
2014-08-23T08:14:24.799Z,99341
2014-08-23T08:14:43.018Z,99347
2014-08-23T08:15:01.237Z,99341
2014-08-23T08:15:19.487Z,99341
2014-08-23T08:15:37.691Z,99344
2014-08-23T08:15:55.941Z,99336
2014-08-23T08:16:14.160Z,99338
2014-08-23T08:16:32.382Z,99341
2014-08-23T08:16:50.600Z,99341
2014-08-23T08:17:08.819Z,99353
2014-08-23T08:17:27.069Z,99338
2014-08-23T08:17:45.290Z,99353
2014-08-23T08:18:03.524Z,99344
2014-08-23T08:18:21.743Z,99341
2014-08-23T08:18:39.978Z,99344
2014-08-23T08:18:58.213Z,99338
2014-08-23T08:19:16.416Z,99344
2014-08-23T08:19:34.681Z,99347
2014-08-23T08:19:52.888Z,99338
2014-08-23T08:20:11.138Z,99344
2014-08-23T08:20:29.341Z,99344
2014-08-23T08:20:47.561Z,99344
2014-08-23T08:21:38.155Z,99338
2014-08-23T08:21:56.407Z,99338
2014-08-23T08:22:14.610Z,99336
2014-08-23T08:22:32.845Z,99344
2014-08-23T08:22:51.095Z,99341
2014-08-23T08:23:09.315Z,99338
2014-08-23T08:23:27.519Z,99341
2014-08-23T08:24:18.114Z,99333
2014-08-23T08:24:36.349Z,99341
2014-08-23T08:24:54.583Z,99347
2014-08-23T08:25:12.819Z,99341
2014-08-23T08:25:31.038Z,99333
2014-08-23T08:25:49.241Z,99330
2014-08-23T08:26:07.491Z,99341
2014-08-23T08:26:25.696Z,99344
2014-08-23T08:26:43.946Z,99344
2014-08-23T08:27:02.181Z,99341
2014-08-23T08:27:20.402Z,99347
2014-08-23T08:27:38.652Z,99344
2014-08-23T08:27:56.855Z,99344
2014-08-23T08:28:15.105Z,99341
2014-08-23T08:28:33.311Z,99338
2014-08-23T08:28:51.545Z,99347
2014-08-23T08:29:23.937Z,99347
2014-08-23T08:30:14.546Z,99341
2014-08-23T08:30:32.751Z,99336
2014-08-23T08:30:51.001Z,99341
2014-08-23T08:31:09.220Z,99341
2014-08-23T08:31:27.423Z,99341
2014-08-23T08:31:45.660Z,99338
2014-08-23T08:32:03.863Z,99335
2014-08-23T08:32:22.113Z,99344
2014-08-23T08:32:40.333Z,99350
2014-08-23T08:32:58.552Z,99344
2014-08-23T08:33:16.755Z,99341
2014-08-23T08:33:34.990Z,99338
2014-08-23T08:33:53.430Z,99347
2014-08-23T08:34:11.618Z,99347
2014-08-23T08:34:29.852Z,99347
2014-08-23T08:34:48.073Z,99341
2014-08-23T08:35:06.307Z,99341
2014-08-23T08:35:24.557Z,99338
2014-08-23T08:35:42.776Z,99338
2014-08-23T08:36:01.012Z,99344
2014-08-23T08:36:19.231Z,99341
2014-08-23T08:37:24.749Z,99341
2014-08-23T08:37:42.967Z,99344
2014-08-23T08:38:01.188Z,99333
2014-08-23T08:38:19.423Z,99347
2014-08-23T08:38:37.641Z,99341
2014-08-23T08:38:55.860Z,99341
2014-08-23T08:39:14.081Z,99347
2014-08-23T08:39:32.315Z,99347
2014-08-23T08:39:50.550Z,99347
2014-08-23T08:40:08.770Z,99338
2014-08-23T08:40:41.145Z,99338
2014-08-23T08:40:59.380Z,99350
2014-08-23T08:41:17.600Z,99347
2014-08-23T08:41:49.991Z,99344
2014-08-23T08:42:08.225Z,99338
2014-08-23T08:42:26.431Z,99338
2014-08-23T08:42:44.665Z,99344
2014-08-23T08:43:02.899Z,99344
2014-08-23T08:43:21.118Z,99338
2014-08-23T08:43:39.340Z,99344
2014-08-23T08:43:57.543Z,99344
2014-08-23T08:44:15.793Z,99327
2014-08-23T08:44:33.997Z,99338
2014-08-23T08:44:52.216Z,99344
2014-08-23T08:45:10.450Z,99344
2014-08-23T08:45:28.669Z,99341
2014-08-23T08:45:46.905Z,99341
2014-08-23T08:46:05.124Z,99350
2014-08-23T08:46:23.343Z,99341
2014-08-23T08:46:41.579Z,99350
2014-08-23T08:46:59.798Z,99338
2014-08-23T08:47:18.032Z,99347
2014-08-23T08:47:36.267Z,99341
2014-08-23T08:47:54.487Z,99335
2014-08-23T08:48:12.722Z,99341
2014-08-23T08:48:30.956Z,99335
2014-08-23T08:48:49.177Z,99344
2014-08-23T08:49:07.411Z,99341
2014-08-23T08:49:25.630Z,99330
2014-08-23T08:49:43.849Z,99333
2014-08-23T08:50:02.086Z,99333
2014-08-23T08:50:20.321Z,99338
2014-08-23T08:50:38.539Z,99338
2014-08-23T08:50:56.776Z,99341
2014-08-23T08:51:15.010Z,99341
2014-08-23T08:51:33.354Z,99335
2014-08-23T08:51:51.526Z,99330
2014-08-23T08:52:09.981Z,99327
2014-08-23T08:52:28.168Z,99335
2014-08-23T08:52:46.434Z,99344
2014-08-23T08:53:04.655Z,99347
2014-08-23T08:53:22.873Z,99350
2014-08-23T08:53:41.077Z,99353
2014-08-23T08:53:59.327Z,99341
2014-08-23T08:54:17.562Z,99335
2014-08-23T08:54:35.796Z,99353
2014-08-23T08:54:54.031Z,99347
2014-08-23T08:55:12.299Z,99347
2014-08-23T08:55:30.534Z,99344
2014-08-23T08:55:48.799Z,99344
2014-08-23T08:56:07.190Z,99335
2014-08-23T08:56:25.426Z,99341
2014-08-23T08:56:43.614Z,99344
2014-08-23T08:57:01.864Z,99341
2014-08-23T08:57:20.084Z,99341
2014-08-23T08:57:38.302Z,99344
2014-08-23T08:57:56.521Z,99338
2014-08-23T08:58:14.755Z,99347
2014-08-23T08:58:32.993Z,99338
2014-08-23T08:58:51.196Z,99347
2014-08-23T08:59:09.430Z,99347
2014-08-23T08:59:27.667Z,99341
2014-08-23T08:59:45.917Z,99338
2014-08-23T09:00:04.104Z,99341
2014-08-23T09:00:22.339Z,99356
2014-08-23T09:00:40.575Z,99338
2014-08-23T09:00:58.809Z,99341
2014-08-23T09:01:17.012Z,99338
2014-08-23T09:01:35.249Z,99344
2014-08-23T09:01:53.468Z,99338
2014-08-23T09:02:11.686Z,99341
2014-08-23T09:02:29.921Z,99344
2014-08-23T09:02:48.423Z,99335
2014-08-23T09:03:06.688Z,99344
2014-08-23T09:03:24.907Z,99344
2014-08-23T09:03:43.112Z,99347
2014-08-23T09:04:01.315Z,99341
2014-08-23T09:04:19.550Z,99341
2014-08-23T09:04:37.784Z,99341
2014-08-23T09:04:56.006Z,99347
2014-08-23T09:05:14.256Z,99347
2014-08-23T09:05:32.459Z,99341
2014-08-23T09:05:50.695Z,99344
2014-08-23T09:06:08.930Z,99341
2014-08-23T09:06:27.148Z,99332
2014-08-23T09:06:45.383Z,99341
2014-08-23T09:07:03.603Z,99347
2014-08-23T09:07:21.806Z,99347
2014-08-23T09:07:40.040Z,99335
2014-08-23T09:07:58.292Z,99344
2014-08-23T09:08:16.495Z,99341
2014-08-23T09:08:34.730Z,99338
2014-08-23T09:08:52.935Z,99335
2014-08-23T09:09:11.185Z,99341
2014-08-23T09:09:29.403Z,99344
2014-08-23T09:09:47.653Z,99350
2014-08-23T09:10:05.874Z,99332
2014-08-23T09:10:24.093Z,99341
2014-08-23T09:10:42.343Z,99338
2014-08-23T09:11:00.548Z,99341
2014-08-23T09:11:18.782Z,99344
2014-08-23T09:11:37.017Z,99341
2014-08-23T09:11:55.236Z,99335
2014-08-23T09:12:13.456Z,99347
2014-08-23T09:12:31.691Z,99344
2014-08-23T09:13:22.287Z,99350
2014-08-23T09:13:40.522Z,99347
2014-08-23T09:13:58.756Z,99335
2014-08-23T09:14:16.977Z,99347
2014-08-23T09:14:35.196Z,99344
2014-08-23T09:14:53.446Z,99338
2014-08-23T09:15:11.664Z,99347
2014-08-23T09:15:29.884Z,99335
2014-08-23T09:15:48.103Z,99347
2014-08-23T09:16:06.322Z,99344
2014-08-23T09:16:24.559Z,99347
2014-08-23T09:16:42.778Z,99341
2014-08-23T09:17:01.028Z,99341
2014-08-23T09:17:19.231Z,99341
2014-08-23T09:17:37.466Z,99335
2014-08-23T09:17:55.685Z,99344
2014-08-23T09:18:13.888Z,99344
2014-08-23T09:18:32.125Z,99347
2014-08-23T09:18:50.343Z,99344
2014-08-23T09:19:08.562Z,99344
2014-08-23T09:19:26.812Z,99344
2014-08-23T09:19:45.034Z,99350
2014-08-23T09:20:03.253Z,99338
2014-08-23T09:20:21.471Z,99350
2014-08-23T09:20:39.708Z,99347
2014-08-23T09:20:57.895Z,99325
2014-08-23T09:21:16.145Z,99341
2014-08-23T09:21:34.380Z,99344
2014-08-23T09:21:52.585Z,99338
2014-08-23T09:22:10.803Z,99347
2014-08-23T09:22:29.038Z,99347
2014-08-23T09:22:47.273Z,99341
2014-08-23T09:23:19.648Z,99353
2014-08-23T09:23:52.776Z,99347
2014-08-23T09:24:11.011Z,99327
2014-08-23T09:24:29.198Z,99344
2014-08-23T09:24:47.448Z,99338
2014-08-23T09:25:05.669Z,99341
2014-08-23T09:25:23.888Z,99341
2014-08-23T09:25:42.122Z,99341
2014-08-23T09:26:00.358Z,99341
2014-08-23T09:26:18.577Z,99335
2014-08-23T09:26:36.780Z,99344
2014-08-23T09:26:54.999Z,99344
2014-08-23T09:27:13.219Z,99335
2014-08-23T09:27:31.437Z,99335
2014-08-23T09:27:49.687Z,99338
2014-08-23T09:28:07.909Z,99341
2014-08-23T09:28:26.159Z,99344
2014-08-23T09:28:44.394Z,99341
2014-08-23T09:29:02.597Z,99344
2014-08-23T09:29:20.864Z,99335
2014-08-23T09:29:39.067Z,99338
2014-08-23T09:29:57.286Z,99347
2014-08-23T09:30:15.523Z,99341
2014-08-23T09:30:33.741Z,99335
2014-08-23T09:30:51.960Z,99341
2014-08-23T09:31:10.179Z,99347
2014-08-23T09:31:28.384Z,99335
2014-08-23T09:31:46.650Z,99341
2014-08-23T09:32:04.884Z,99332
2014-08-23T09:32:23.089Z,99344
2014-08-23T09:32:41.323Z,99326
2014-08-23T09:32:59.558Z,99341
2014-08-23T09:33:17.761Z,99329
2014-08-23T09:33:35.982Z,99332
2014-08-23T09:33:54.216Z,99325
2014-08-23T09:34:12.466Z,99322
2014-08-23T09:34:30.671Z,99329
2014-08-23T09:34:48.890Z,99329
2014-08-23T09:35:07.140Z,99329
2014-08-23T09:35:25.374Z,99329
2014-08-23T09:35:43.579Z,99329
2014-08-23T09:36:01.814Z,99329
2014-08-23T09:36:20.048Z,99332
2014-08-23T09:36:38.269Z,99332
2014-08-23T09:36:56.488Z,99322
2014-08-23T09:37:14.738Z,99326
2014-08-23T09:37:32.972Z,99325
2014-08-23T09:37:51.193Z,99326
2014-08-23T09:38:09.443Z,99326
2014-08-23T09:38:27.662Z,99329
2014-08-23T09:38:45.914Z,99332
2014-08-23T09:39:04.132Z,99319
2014-08-23T09:39:22.351Z,99327
2014-08-23T09:39:40.554Z,99327
2014-08-23T09:39:58.806Z,99338
2014-08-23T09:40:17.025Z,99327
2014-08-23T09:40:35.259Z,99322
2014-08-23T09:40:53.481Z,99326
2014-08-23T09:41:11.715Z,99326
2014-08-23T09:41:29.965Z,99325
2014-08-23T09:41:48.169Z,99322
2014-08-23T09:42:06.404Z,99332
2014-08-23T09:42:24.607Z,99329
2014-08-23T09:42:42.857Z,99338
2014-08-23T09:43:01.062Z,99335
2014-08-23T09:43:19.297Z,99332
2014-08-23T09:43:37.531Z,99329
2014-08-23T09:43:55.750Z,99329
2014-08-23T09:44:13.971Z,99329
2014-08-23T09:44:32.190Z,99332
2014-08-23T09:44:50.425Z,99329
2014-08-23T09:45:08.629Z,99335
2014-08-23T09:45:26.879Z,99332
2014-08-23T09:45:45.113Z,99329
2014-08-23T09:46:03.332Z,99327
2014-08-23T09:46:21.600Z,99335
2014-08-23T09:46:39.804Z,99338
2014-08-23T09:46:58.022Z,99322
2014-08-23T09:47:16.273Z,99327
2014-08-23T09:47:34.508Z,99325
2014-08-23T09:47:52.726Z,99322
2014-08-23T09:48:10.945Z,99322
2014-08-23T09:48:29.198Z,99319
2014-08-23T09:48:47.433Z,99322
2014-08-23T09:49:05.651Z,99327
2014-08-23T09:49:23.872Z,99329
2014-08-23T09:49:42.106Z,99327
2014-08-23T09:50:00.341Z,99327
2014-08-23T09:50:18.560Z,99327
2014-08-23T09:50:36.780Z,99325
2014-08-23T09:50:55.015Z,99327
2014-08-23T09:51:13.249Z,99332
2014-08-23T09:51:31.454Z,99335
2014-08-23T09:51:49.689Z,99325
2014-08-23T09:52:07.923Z,99319
2014-08-23T09:52:26.126Z,99327
2014-08-23T09:52:44.347Z,99327
2014-08-23T09:53:02.566Z,99325
2014-08-23T09:53:20.894Z,99329
2014-08-23T09:53:39.130Z,99325
2014-08-23T09:53:57.333Z,99329
2014-08-23T09:54:15.568Z,99325
2014-08-23T09:54:33.802Z,99329
2014-08-23T09:54:52.023Z,99325
2014-08-23T09:55:10.226Z,99335
2014-08-23T09:55:28.429Z,99325
2014-08-23T09:55:46.728Z,99327
2014-08-23T09:56:04.947Z,99325
2014-08-23T09:56:23.165Z,99338
2014-08-23T09:56:41.384Z,99325
2014-08-23T09:56:59.620Z,99344
2014-08-23T09:57:17.855Z,99332
2014-08-23T09:57:36.058Z,99319
2014-08-23T09:57:54.279Z,99335
2014-08-23T09:58:13.013Z,99319
2014-08-23T09:58:45.372Z,99322
2014-08-23T09:59:03.624Z,99325
2014-08-23T09:59:21.843Z,99325
2014-08-23T09:59:40.078Z,99327
2014-08-23T09:59:58.312Z,99332
2014-08-23T10:00:16.564Z,99322
2014-08-23T10:00:34.798Z,99322
2014-08-23T10:00:53.001Z,99322
2014-08-23T10:01:11.238Z,99322
2014-08-23T10:01:29.457Z,99326
2014-08-23T10:01:47.660Z,99329
2014-08-23T10:02:05.910Z,99322
2014-08-23T10:02:24.163Z,99316
2014-08-23T10:02:42.631Z,99319
2014-08-23T10:03:01.006Z,99313
2014-08-23T10:03:19.243Z,99322
2014-08-23T10:03:37.446Z,99322